• Join FlightAware (Why Join?)
  • Login
  • US Flag 
10:31AM EDT


 

Airport Tracker/Info


-or-


 

Live Flight TrackerFlight Track Log ✈ EJA396 ✈ 18-Dec-2013 ✈ KIND - KSUT

Flight Track Log - Related Links

Times and Time Zones

All times are in EST time to prevent confusion due to time zone crossing. See the EJA396 flight status page for this flight to view local times or setup timezone preferences in your user account.

Time Position Orientation Groundspeed Altitude Reporting Facility
EST Latitude Longitude Course Direction KTS MPH feet Rate Location/Type
08:38PM 39.7000 -86.3000 218° Southwest 135 155 1,700  Level Indianapolis TRACON
08:39PM 39.6833 -86.3167 218° Southwest 164 189 3,900 3,360 Climbing Indianapolis TRACON
08:40PM 39.6167 -86.3333 191° South 261 300 7,100 3,180 Climbing Indianapolis TRACON
08:41PM 39.5547 -86.3381 183° South 265 305 10,500 3,900 Climbing Indianapolis Center
08:42PM 39.4553 -86.3267 175° South 298 343 15,300 4,200 Climbing Indianapolis Center
08:43PM 39.3717 -86.3175 175° South 303 349 19,300 3,480 Climbing Indianapolis Center
08:44PM 39.2817 -86.2953 169° South 325 374 22,600 2,580 Climbing Indianapolis Center
08:45PM 39.2081 -86.1881 132° Southeast 396 456 24,700 1,980 Climbing Indianapolis Center
08:46PM 39.1364 -86.0617 126° Southeast 429 494 26,700 2,100 Climbing Indianapolis Center
08:47PM 39.0428 -85.9006 127° Southeast 462 532 29,100 2,040 Climbing Indianapolis Center
08:48PM 38.9617 -85.7619 127° Southeast 483 556 31,000 1,740 Climbing Indianapolis Center
08:49PM 38.8803 -85.6203 126° Southeast 493 567 32,800 1,740 Climbing Indianapolis Center
08:50PM 38.7972 -85.4794 127° Southeast 496 571 34,600 1,740 Climbing Indianapolis Center
08:51PM 38.7150 -85.3378 127° Southeast 498 573 36,400 1,140 Climbing Indianapolis Center
08:52PM 38.6269 -85.1906 127° Southeast 497 572 37,000 240 Climbing Indianapolis Center
08:53PM 38.5403 -85.0433 127° Southeast 514 592 37,000  Level Indianapolis Center
08:54PM 38.4383 -84.8714 127° Southeast 519 597 37,000  Level Indianapolis Center
08:55PM 38.3506 -84.7253 127° Southeast 519 597 37,000 600 Level Indianapolis Center
08:56PM 38.2644 -84.5819 127° Southeast 512 589 38,300 960 Climbing Indianapolis Center
08:57PM 38.1803 -84.4419 127° Southeast 500 575 39,000 300 Climbing Indianapolis Center
08:58PM 38.0919 -84.3006 128° Southeast 509 586 39,000  Level Indianapolis Center
08:59PM 38.0031 -84.1558 128° Southeast 516 594 39,000  Level Indianapolis Center
09:00PM 37.8928 -84.0378 140° Southeast 516 594 39,000  Level Indianapolis Center
09:01PM 37.7856 -83.9219 139° Southeast 508 585 39,000  Level Indianapolis Center
09:02PM 37.6622 -83.7878 139° Southeast 503 579 39,000  Level Indianapolis Center
09:03PM 37.5525 -83.6747 141° Southeast 504 580 39,000  Level Indianapolis Center
09:04PM 37.4444 -83.5600 140° Southeast 507 583 39,000  Level Indianapolis Center
09:05PM 37.3375 -83.4472 140° Southeast 504 580 39,000  Level Indianapolis Center
09:06PM 37.2297 -83.3339 140° Southeast 503 579 39,000  Level Indianapolis Center
09:07PM 37.1317 -83.2056 134° Southeast 512 589 39,000  Level Indianapolis Center
09:08PM 37.0478 -83.0594 126° Southeast 515 593 39,000  Level Indianapolis Center
09:10PM 36.9556 -82.9011 126° Southeast 513 590 39,000  Level Indianapolis Center
09:11PM 36.8714 -82.7572 126° Southeast 513 590 39,000  Level Indianapolis Center
09:12PM 36.7864 -82.6133 126° Southeast 519 597 39,000  Level Indianapolis Center
09:13PM 36.7014 -82.4703 127° Southeast 515 593 39,000  Level Indianapolis Center
09:14PM 36.6161 -82.3258 126° Southeast 515 593 39,000  Level Indianapolis Center
09:14PM 36.5450 -82.2042 126° Southeast 522 601 39,000  Level Atlanta Center
09:15PM 36.4594 -82.0614 127° Southeast 522 601 39,000  Level Atlanta Center
09:16PM 36.3736 -81.9217 127° Southeast 522 601 39,000  Level Atlanta Center
09:17PM 36.2897 -81.7797 126° Southeast 522 601 39,000  Level Atlanta Center
09:18PM 36.2036 -81.6356 126° Southeast 522 601 39,000  Level Atlanta Center
09:19PM 36.1175 -81.4967 127° Southeast 517 595 39,000  Level Atlanta Center
09:20PM 36.0311 -81.3556 127° Southeast 522 601 39,000  Level Atlanta Center
09:21PM 35.9464 -81.2122 126° Southeast 522 601 39,000  Level Atlanta Center
09:22PM 35.8597 -81.0742 128° Southeast 522 601 39,000  Level Atlanta Center
09:23PM 35.7708 -80.9317 128° Southeast 522 601 39,000  Level Atlanta Center
09:24PM 35.6836 -80.7944 128° Southeast 522 601 39,000  Level Atlanta Center
09:25PM 35.5986 -80.6547 127° Southeast 522 601 39,000  Level Atlanta Center
09:26PM 35.5111 -80.5153 128° Southeast 522 601 39,000  Level Atlanta Center
09:27PM 35.4258 -80.3789 127° Southeast 522 601 39,000 -300 Level Atlanta Center
09:28PM 35.3383 -80.2428 128° Southeast 522 601 38,400 -1,200 Descending Atlanta Center
09:30PM 35.2117 -80.0383 127° Southeast 515 593 36,200 -1,560 Descending Washington Center
09:31PM 35.1250 -79.9014 128° Southeast 509 586 34,700 -1,800 Descending Washington Center
09:32PM 35.0378 -79.7675 128° Southeast 509 586 32,700 -2,040 Descending Washington Center
09:33PM 34.9547 -79.6364 128° Southeast 503 579 30,700 -2,040 Descending Washington Center
09:34PM 34.8694 -79.5031 128° Southeast 503 579 28,700 -2,040 Descending Washington Center
09:35PM 34.7839 -79.3725 129° Southeast 498 573 26,700 -2,400 Descending Washington Center
09:36PM 34.7022 -79.2475 128° Southeast 491 565 24,000 -2,580 Descending Washington Center
09:37PM 34.6264 -79.1331 129° Southeast 469 540 21,700 -2,160 Descending Washington Center
09:38PM 34.5547 -79.0189 127° Southeast 438 504 19,700 -1,980 Descending Washington Center
09:40PM 34.4134 -78.8184 127° Southeast  Level FlightAware Approximate
09:47PM 33.9308 -78.0734 126° Southeast  Level Estimated
09:48PM 33.9308 -78.0734 126° Southeast  Level Estimated
09:49PM 33.9308 -78.0734 126° Southeast  Level Estimated
09:50PM 33.9308 -78.0734 126° Southeast  Level Estimated
09:51PM 33.9308 -78.0734 126° Southeast  Level Estimated
09:52PM 33.9308 -78.0734 126° Southeast  Level Estimated